createdAt,value
2022-11-17T00:01:26.564Z,7.40
2022-11-17T00:03:53.635Z,7.93
2022-11-17T00:06:21.180Z,7.47
2022-11-17T00:08:49.133Z,9.57
2022-11-17T00:11:16.461Z,11.07
2022-11-17T00:14:02.185Z,9.13
2022-11-17T00:16:29.335Z,8.17
2022-11-17T00:19:15.379Z,9.13
2022-11-17T00:21:42.816Z,8.47
2022-11-17T00:24:10.478Z,6.87
2022-11-17T00:26:57.940Z,7.80
2022-11-17T00:29:25.549Z,12.20
2022-11-17T00:32:11.470Z,7.70
2022-11-17T00:34:38.656Z,10.17
2022-11-17T00:37:06.076Z,7.83
2022-11-17T00:39:33.483Z,5.77
2022-11-17T00:42:00.849Z,6.37
2022-11-17T00:44:28.170Z,5.93
2022-11-17T00:46:55.427Z,4.83
2022-11-17T00:49:25.423Z,4.90
2022-11-17T00:51:53.666Z,3.83
2022-11-17T00:54:20.929Z,4.17
2022-11-17T00:56:48.191Z,4.03
2022-11-17T00:59:15.492Z,3.33
2022-11-17T01:01:43.069Z,3.37
2022-11-17T01:04:10.562Z,2.87
2022-11-17T01:06:42.070Z,2.60
2022-11-17T01:09:14.171Z,3.10
2022-11-17T01:11:42.189Z,2.77
2022-11-17T01:14:14.930Z,2.93
2022-11-17T01:16:42.040Z,2.87
2022-11-17T01:19:10.185Z,2.93
2022-11-17T01:21:37.553Z,2.60
2022-11-17T01:24:05.063Z,2.90
2022-11-17T01:26:34.108Z,2.27
2022-11-17T01:29:02.126Z,2.60
2022-11-17T01:31:31.443Z,2.63
2022-11-17T01:33:58.856Z,2.50
2022-11-17T01:36:30.842Z,1.90
2022-11-17T01:38:58.004Z,2.80
2022-11-17T01:41:26.758Z,2.30
2022-11-17T01:43:56.298Z,2.57
2022-11-17T01:46:39.624Z,2.40
2022-11-17T01:49:18.503Z,2.17
2022-11-17T01:51:48.999Z,2.47
2022-11-17T01:54:17.897Z,2.53
2022-11-17T01:56:46.453Z,2.13
2022-11-17T01:59:22.012Z,2.63
2022-11-17T02:01:58.390Z,3.03
2022-11-17T02:04:35.147Z,3.10
2022-11-17T02:07:21.857Z,2.83
2022-11-17T02:09:49.138Z,2.70
2022-11-17T02:12:16.218Z,2.87
2022-11-17T02:14:43.370Z,2.57
2022-11-17T02:17:14.317Z,3.00
2022-11-17T02:19:42.560Z,2.40
2022-11-17T02:22:40.074Z,2.30
2022-11-17T02:25:28.188Z,2.30
2022-11-17T02:28:25.308Z,2.10
2022-11-17T02:31:30.140Z,2.13
2022-11-17T02:34:03.431Z,1.80
2022-11-17T02:36:41.146Z,1.90
2022-11-17T02:39:17.255Z,2.30
2022-11-17T02:41:50.566Z,2.03
2022-11-17T02:44:26.659Z,2.20
2022-11-17T02:47:02.422Z,2.00
2022-11-17T02:49:40.741Z,2.03
2022-11-17T02:52:08.418Z,2.20
2022-11-17T02:54:35.695Z,2.20
2022-11-17T02:57:02.899Z,2.03
2022-11-17T02:59:37.897Z,2.20
2022-11-17T03:02:23.223Z,1.87
2022-11-17T03:05:14.120Z,2.20
2022-11-17T03:08:08.827Z,2.10
2022-11-17T03:10:49.708Z,2.40
2022-11-17T03:13:38.802Z,2.20
2022-11-17T03:16:29.926Z,2.10
2022-11-17T03:19:18.135Z,2.03
2022-11-17T03:22:09.129Z,2.10
2022-11-17T03:24:51.482Z,2.23
2022-11-17T03:27:27.229Z,2.60
2022-11-17T03:30:05.993Z,1.83
2022-11-17T03:32:36.434Z,2.53
2022-11-17T03:35:15.379Z,2.40
2022-11-17T03:37:45.106Z,2.00
2022-11-17T03:40:14.905Z,2.00
2022-11-17T03:42:43.967Z,1.90
2022-11-17T03:45:20.531Z,1.80
2022-11-17T03:47:47.531Z,2.30
2022-11-17T03:50:19.691Z,2.50
2022-11-17T03:52:46.947Z,2.13
2022-11-17T03:55:14.031Z,2.47
2022-11-17T03:58:10.988Z,2.20
2022-11-17T04:00:38.104Z,2.20
2022-11-17T04:03:05.219Z,2.10
2022-11-17T04:05:32.419Z,2.53
2022-11-17T04:07:59.789Z,2.30
2022-11-17T04:10:27.419Z,2.93
2022-11-17T04:13:13.283Z,2.77
2022-11-17T04:15:59.559Z,2.60
2022-11-17T04:18:27.275Z,3.00
2022-11-17T04:20:56.119Z,2.80
2022-11-17T04:23:23.479Z,2.93
2022-11-17T04:26:13.237Z,2.30
2022-11-17T04:28:46.283Z,2.40
2022-11-17T04:31:15.819Z,1.97
2022-11-17T04:33:44.977Z,2.07
2022-11-17T04:36:13.343Z,1.97
2022-11-17T04:38:44.311Z,2.40
2022-11-17T04:41:31.423Z,2.50
2022-11-17T04:43:58.684Z,2.50
2022-11-17T04:46:26.083Z,2.27
2022-11-17T04:48:54.547Z,2.03
2022-11-17T04:51:22.413Z,2.30
2022-11-17T04:53:49.666Z,1.97
2022-11-17T04:56:16.776Z,2.20
2022-11-17T04:58:44.099Z,2.57
2022-11-17T05:01:14.452Z,2.83
2022-11-17T05:03:52.356Z,3.20
2022-11-17T05:06:20.641Z,2.90
2022-11-17T05:08:48.278Z,3.07
2022-11-17T05:11:34.185Z,2.80
2022-11-17T05:14:01.502Z,3.00
2022-11-17T05:16:47.449Z,2.80
2022-11-17T05:19:17.156Z,2.57
2022-11-17T05:21:44.473Z,2.60
2022-11-17T05:24:11.807Z,2.20
2022-11-17T05:26:39.282Z,2.53
2022-11-17T05:29:07.203Z,2.67
2022-11-17T05:31:34.572Z,2.63
2022-11-17T05:34:02.146Z,2.30
2022-11-17T05:36:29.529Z,2.30
2022-11-17T05:38:56.941Z,2.47
2022-11-17T05:41:24.275Z,2.80
2022-11-17T05:43:51.889Z,2.80
2022-11-17T05:46:19.379Z,5.23
2022-11-17T05:48:47.508Z,3.03
2022-11-17T05:51:14.896Z,3.43
2022-11-17T05:53:42.357Z,3.60
2022-11-17T05:56:24.562Z,2.80
2022-11-17T05:58:53.674Z,1.97
2022-11-17T06:01:21.257Z,1.80
2022-11-17T06:03:53.946Z,2.10
2022-11-17T06:06:21.433Z,2.10
2022-11-17T06:08:48.840Z,2.63
2022-11-17T06:11:17.174Z,2.50
2022-11-17T06:13:44.416Z,2.57
2022-11-17T06:16:12.515Z,2.90
2022-11-17T06:18:41.988Z,2.23
2022-11-17T06:21:09.511Z,2.50
2022-11-17T06:23:37.197Z,2.73
2022-11-17T06:26:06.684Z,3.20
2022-11-17T06:28:34.019Z,2.10
2022-11-17T06:31:01.219Z,2.20
2022-11-17T06:33:29.703Z,2.63
2022-11-17T06:35:57.231Z,2.50
2022-11-17T06:38:24.266Z,2.00
2022-11-17T06:40:52.087Z,2.00
2022-11-17T06:43:19.434Z,2.80
2022-11-17T06:45:47.273Z,2.40
2022-11-17T06:48:15.917Z,8.47
2022-11-17T06:50:43.590Z,4.57
2022-11-17T06:53:11.582Z,3.40
2022-11-17T06:55:39.130Z,2.10
2022-11-17T06:58:08.107Z,3.10
2022-11-17T07:00:36.775Z,5.70
2022-11-17T07:03:08.322Z,3.00
2022-11-17T07:05:36.245Z,2.70
2022-11-17T07:08:08.246Z,3.53
2022-11-17T07:10:36.262Z,3.03
2022-11-17T07:13:03.863Z,2.53
2022-11-17T07:15:31.316Z,1.87
2022-11-17T07:17:58.905Z,2.50
2022-11-17T07:20:26.155Z,2.87
2022-11-17T07:22:58.838Z,2.70
2022-11-17T07:25:26.369Z,2.90
2022-11-17T07:28:00.465Z,2.67
2022-11-17T07:30:27.729Z,2.80
2022-11-17T07:32:55.128Z,3.73
2022-11-17T07:35:22.436Z,4.23
2022-11-17T07:37:50.157Z,3.93
2022-11-17T07:40:17.488Z,3.53
2022-11-17T07:42:49.603Z,6.90
2022-11-17T07:45:16.837Z,12.20
2022-11-17T07:47:44.345Z,6.90
2022-11-17T07:50:11.584Z,20.83
2022-11-17T07:52:41.457Z,22.53
2022-11-17T07:55:09.063Z,8.27
2022-11-17T07:57:36.943Z,3.60
2022-11-17T08:00:04.789Z,3.70
2022-11-17T08:02:32.474Z,3.50
2022-11-17T08:04:59.842Z,4.57
2022-11-17T08:07:27.345Z,4.00
2022-11-17T08:09:54.446Z,4.77
2022-11-17T08:12:21.733Z,4.03
2022-11-17T08:14:48.983Z,3.03
2022-11-17T08:17:17.786Z,3.23
2022-11-17T08:19:45.062Z,3.23
2022-11-17T08:22:12.298Z,3.50
2022-11-17T08:24:39.701Z,3.70
2022-11-17T08:27:06.972Z,4.53
2022-11-17T08:29:33.982Z,3.90
2022-11-17T08:32:01.098Z,3.80
2022-11-17T08:34:28.143Z,3.87
2022-11-17T08:36:55.556Z,4.00
2022-11-17T08:39:22.606Z,3.83
2022-11-17T08:41:51.933Z,3.87
2022-11-17T08:44:18.953Z,3.43
2022-11-17T08:46:46.348Z,3.60
2022-11-17T08:49:13.804Z,3.87
2022-11-17T08:51:40.768Z,3.90
2022-11-17T08:54:10.163Z,4.20
2022-11-17T08:56:37.539Z,5.00
2022-11-17T08:59:04.641Z,4.33
2022-11-17T09:01:31.687Z,5.37
2022-11-17T09:03:59.080Z,5.57
2022-11-17T09:06:26.311Z,5.30
2022-11-17T09:08:54.685Z,4.97
2022-11-17T09:11:21.890Z,6.50
2022-11-17T09:13:49.262Z,5.17
2022-11-17T09:16:17.099Z,5.77
2022-11-17T09:18:44.605Z,6.03
2022-11-17T09:21:13.858Z,4.97
2022-11-17T09:23:41.744Z,5.13
2022-11-17T09:26:10.935Z,4.87
2022-11-17T09:28:38.524Z,5.10
2022-11-17T09:31:10.633Z,4.60
2022-11-17T09:33:37.907Z,4.10
2022-11-17T09:36:07.480Z,5.70
2022-11-17T09:38:35.878Z,4.60
2022-11-17T09:41:24.199Z,5.60
2022-11-17T09:43:54.332Z,5.70
2022-11-17T09:46:26.408Z,5.50
2022-11-17T09:49:22.929Z,6.63
2022-11-17T09:51:50.110Z,4.53
2022-11-17T09:54:32.150Z,4.67
2022-11-17T09:56:59.311Z,4.70
2022-11-17T09:59:27.643Z,4.13
2022-11-17T10:01:54.896Z,4.80
2022-11-17T10:04:22.756Z,5.53
2022-11-17T10:06:50.564Z,5.77
2022-11-17T10:09:37.172Z,6.97
2022-11-17T10:12:27.209Z,5.67
2022-11-17T10:14:54.893Z,5.50
2022-11-17T10:17:22.403Z,6.10
2022-11-17T10:19:49.653Z,6.93
2022-11-17T10:22:32.512Z,7.43
2022-11-17T10:24:59.937Z,7.87
2022-11-17T10:27:31.484Z,7.00
2022-11-17T10:30:07.445Z,9.77
2022-11-17T10:32:41.671Z,8.97
2022-11-17T10:35:22.139Z,8.63
2022-11-17T10:37:58.306Z,8.00
2022-11-17T10:40:46.701Z,7.83
2022-11-17T10:43:17.852Z,7.80
2022-11-17T10:45:53.020Z,8.47
2022-11-17T10:48:33.535Z,8.83
2022-11-17T10:51:19.747Z,8.43
2022-11-17T10:54:07.596Z,8.60
2022-11-17T10:56:40.499Z,8.17
2022-11-17T10:59:14.352Z,8.90
2022-11-17T11:01:43.237Z,7.83
2022-11-17T11:04:32.729Z,6.70
2022-11-17T11:07:22.466Z,7.47
2022-11-17T11:10:23.880Z,6.60
2022-11-17T11:12:56.686Z,7.80
2022-11-17T11:15:24.643Z,10.90
2022-11-17T11:17:51.756Z,8.90
2022-11-17T11:20:21.901Z,8.90
2022-11-17T11:23:02.756Z,8.50
2022-11-17T11:25:32.866Z,7.67
2022-11-17T11:28:21.435Z,9.47
2022-11-17T11:30:48.592Z,10.37
2022-11-17T11:33:28.287Z,10.10
2022-11-17T11:36:15.763Z,10.80
2022-11-17T11:38:52.842Z,11.57
2022-11-17T11:41:56.727Z,11.30
2022-11-17T11:44:42.535Z,12.40
2022-11-17T11:47:28.430Z,10.83
2022-11-17T11:49:58.138Z,11.37
2022-11-17T11:52:27.924Z,10.43
2022-11-17T11:54:56.896Z,9.47
2022-11-17T11:57:30.972Z,9.17
2022-11-17T12:00:04.998Z,11.37
2022-11-17T12:02:38.618Z,11.00
2022-11-17T12:05:11.142Z,10.03
2022-11-17T12:07:49.299Z,12.20
2022-11-17T12:10:40.855Z,11.80
2022-11-17T12:13:12.746Z,14.90
2022-11-17T12:15:39.966Z,17.30
2022-11-17T12:18:19.752Z,17.87
2022-11-17T12:20:52.991Z,18.83
2022-11-17T12:23:49.112Z,19.57
2022-11-17T12:26:29.679Z,17.87
2022-11-17T12:29:21.605Z,18.00
2022-11-17T12:31:49.687Z,17.60
2022-11-17T12:34:30.824Z,17.17
2022-11-17T12:37:16.248Z,17.77
2022-11-17T12:40:02.850Z,17.10
2022-11-17T12:42:33.367Z,16.23
2022-11-17T12:45:08.560Z,15.80
2022-11-17T12:47:40.633Z,14.97
2022-11-17T12:50:19.977Z,14.83
2022-11-17T12:53:14.566Z,16.73
2022-11-17T12:55:47.756Z,15.03
2022-11-17T12:58:33.602Z,15.37
2022-11-17T13:01:11.554Z,13.40
2022-11-17T13:03:47.901Z,14.10
2022-11-17T13:09:07.481Z,12.03
2022-11-17T13:11:35.365Z,12.23
2022-11-17T13:14:09.798Z,11.20
2022-11-17T13:16:38.068Z,11.00
2022-11-17T13:19:28.092Z,11.87
2022-11-17T13:22:00.560Z,11.53
2022-11-17T13:24:35.607Z,11.53
2022-11-17T13:27:04.701Z,10.87
2022-11-17T13:29:32.024Z,11.73
2022-11-17T13:32:25.518Z,14.00
2022-11-17T13:34:57.120Z,16.33
2022-11-17T13:37:25.995Z,18.87
2022-11-17T13:40:03.572Z,19.00
2022-11-17T13:42:32.198Z,23.53
2022-11-17T13:45:01.190Z,23.57
2022-11-17T13:47:38.211Z,19.83
2022-11-17T13:50:40.939Z,17.40
2022-11-17T13:53:22.582Z,19.07
2022-11-17T13:55:49.949Z,17.60
2022-11-17T13:58:27.365Z,18.80
2022-11-17T14:00:57.653Z,16.60
2022-11-17T14:03:33.898Z,16.70
2022-11-17T14:06:04.705Z,16.90
2022-11-17T14:08:32.281Z,16.70
2022-11-17T14:11:28.621Z,17.13
2022-11-17T14:13:59.267Z,15.77
2022-11-17T14:16:27.365Z,16.47
2022-11-17T14:19:02.062Z,16.27
2022-11-17T14:21:29.753Z,15.23
2022-11-17T14:24:05.787Z,15.93
2022-11-17T14:26:32.953Z,17.40
2022-11-17T14:29:03.128Z,16.70
2022-11-17T14:31:30.931Z,16.33
2022-11-17T14:33:58.208Z,16.13
2022-11-17T14:36:25.325Z,18.53
2022-11-17T14:38:52.839Z,19.27
2022-11-17T14:41:20.520Z,18.00
2022-11-17T14:43:48.065Z,17.70
2022-11-17T14:46:25.440Z,17.70
2022-11-17T14:48:52.695Z,15.23
2022-11-17T14:51:20.201Z,17.30
2022-11-17T14:53:48.100Z,20.43
2022-11-17T14:56:16.880Z,26.53
2022-11-17T14:58:44.802Z,18.67
2022-11-17T15:01:19.031Z,19.33
2022-11-17T15:03:46.758Z,23.27
2022-11-17T15:06:19.472Z,19.77
2022-11-17T15:08:47.504Z,18.37
2022-11-17T15:11:24.054Z,21.07
2022-11-17T15:13:51.320Z,18.57
2022-11-17T15:16:18.872Z,18.93
2022-11-17T15:18:49.025Z,20.17
2022-11-17T15:21:16.446Z,22.70
2022-11-17T15:23:44.057Z,21.07
2022-11-17T15:26:13.852Z,19.93
2022-11-17T15:28:41.152Z,19.50
2022-11-17T15:31:19.237Z,19.40
2022-11-17T15:33:47.652Z,19.17
2022-11-17T15:36:16.999Z,21.40
2022-11-17T15:38:44.235Z,19.47
2022-11-17T15:41:12.293Z,17.13
2022-11-17T15:43:40.887Z,16.83
2022-11-17T15:46:25.950Z,17.47
2022-11-17T15:48:53.535Z,18.27
2022-11-17T15:51:21.798Z,18.43
2022-11-17T15:53:49.632Z,20.17
2022-11-17T15:56:17.725Z,21.07
2022-11-17T15:58:45.348Z,27.90
2022-11-17T16:01:14.405Z,17.77
2022-11-17T16:03:43.141Z,20.63
2022-11-17T16:06:10.787Z,19.43
2022-11-17T16:08:38.245Z,18.27
2022-11-17T16:11:05.783Z,19.40
2022-11-17T16:13:33.124Z,22.63
2022-11-17T16:16:00.463Z,34.83
2022-11-17T16:18:27.586Z,22.93
2022-11-17T16:20:56.183Z,25.23
2022-11-17T16:23:26.844Z,27.73
2022-11-17T16:25:54.111Z,20.43
2022-11-17T16:28:21.341Z,23.60
2022-11-17T16:30:48.447Z,24.07
2022-11-17T16:33:16.800Z,20.03
2022-11-17T16:35:46.114Z,20.47
2022-11-17T16:38:15.438Z,20.90
2022-11-17T16:40:42.829Z,18.73
2022-11-17T16:43:13.495Z,19.97
2022-11-17T16:45:44.919Z,21.37
2022-11-17T16:48:12.678Z,18.63
2022-11-17T16:50:40.205Z,21.30
2022-11-17T16:53:07.677Z,20.63
2022-11-17T16:55:37.812Z,17.20
2022-11-17T16:58:06.239Z,16.90
2022-11-17T17:00:34.970Z,17.43
2022-11-17T17:03:02.598Z,18.87
2022-11-17T17:05:29.740Z,23.03
2022-11-17T17:07:57.535Z,22.57
2022-11-17T17:10:24.883Z,18.93
2022-11-17T17:12:52.536Z,16.60
2022-11-17T17:15:19.903Z,15.37
2022-11-17T17:17:47.186Z,15.67
2022-11-17T17:20:14.517Z,13.90
2022-11-17T17:22:42.166Z,13.57
2022-11-17T17:25:09.763Z,15.23
2022-11-17T17:27:39.622Z,17.27
2022-11-17T17:30:07.294Z,17.30
2022-11-17T17:32:34.651Z,19.87
2022-11-17T17:35:01.864Z,17.33
2022-11-17T17:37:30.668Z,19.77
2022-11-17T17:39:57.915Z,14.60
2022-11-17T17:42:25.138Z,13.73
2022-11-17T17:44:52.734Z,13.77
2022-11-17T17:47:20.000Z,14.77
2022-11-17T17:49:47.401Z,13.77
2022-11-17T17:52:15.166Z,13.70
2022-11-17T17:54:42.563Z,13.37
2022-11-17T17:57:10.852Z,13.87
2022-11-17T17:59:38.239Z,12.43
2022-11-17T18:02:05.568Z,12.90
2022-11-17T18:04:32.979Z,13.63
2022-11-17T18:07:01.640Z,12.87
2022-11-17T18:09:29.062Z,12.77
2022-11-17T18:11:56.323Z,11.77
2022-11-17T18:14:26.420Z,12.93
2022-11-17T18:16:53.822Z,12.93
2022-11-17T18:19:20.912Z,12.33
2022-11-17T18:21:48.444Z,12.43
2022-11-17T18:24:15.670Z,17.17
2022-11-17T18:26:43.333Z,12.40
2022-11-17T18:29:18.886Z,12.67
2022-11-17T18:31:47.656Z,11.97
2022-11-17T18:34:21.119Z,12.43
2022-11-17T18:36:52.014Z,13.33
2022-11-17T18:39:19.803Z,11.90
2022-11-17T18:41:47.291Z,11.53
2022-11-17T18:44:19.917Z,11.87
2022-11-17T18:46:47.244Z,14.20
2022-11-17T18:49:14.930Z,11.57
2022-11-17T18:51:42.616Z,12.73
2022-11-17T18:54:10.889Z,11.93
2022-11-17T18:56:38.802Z,12.30
2022-11-17T18:59:11.948Z,12.30
2022-11-17T19:01:40.781Z,11.57
2022-11-17T19:04:07.993Z,12.00
2022-11-17T19:06:35.998Z,13.10
2022-11-17T19:09:03.400Z,15.00
2022-11-17T19:11:32.933Z,18.13
2022-11-17T19:14:05.705Z,15.47
2022-11-17T19:16:33.339Z,14.03
2022-11-17T19:19:00.667Z,15.40
2022-11-17T19:21:29.585Z,17.13
2022-11-17T19:23:58.725Z,17.20
2022-11-17T19:26:30.427Z,15.03
2022-11-17T19:28:59.130Z,12.83
2022-11-17T19:31:26.466Z,13.40
2022-11-17T19:33:54.007Z,12.90
2022-11-17T19:36:40.151Z,11.87
2022-11-17T19:39:07.327Z,12.70
2022-11-17T19:41:36.380Z,10.90
2022-11-17T19:44:05.081Z,10.53
2022-11-17T19:46:32.466Z,10.07
2022-11-17T19:48:59.767Z,10.80
2022-11-17T19:51:31.305Z,12.67
2022-11-17T19:54:01.146Z,10.80
2022-11-17T19:56:28.402Z,10.60
2022-11-17T19:58:55.994Z,10.33
2022-11-17T20:01:27.908Z,10.47
2022-11-17T20:03:55.443Z,9.80
2022-11-17T20:06:24.559Z,10.27
2022-11-17T20:08:51.874Z,10.37
2022-11-17T20:11:23.298Z,10.97
2022-11-17T20:13:50.656Z,11.37
2022-11-17T20:16:19.884Z,11.33
2022-11-17T20:18:49.709Z,11.50
2022-11-17T20:21:16.964Z,11.67
2022-11-17T20:23:44.113Z,11.23
2022-11-17T20:26:16.078Z,11.60
2022-11-17T20:28:43.188Z,10.90
2022-11-17T20:31:14.819Z,11.50
2022-11-17T20:33:42.944Z,12.63
2022-11-17T20:36:12.491Z,12.63
2022-11-17T20:38:39.774Z,13.73
2022-11-17T20:41:07.129Z,12.00
2022-11-17T20:43:34.614Z,14.00
2022-11-17T20:46:02.068Z,13.27
2022-11-17T20:48:29.327Z,13.17
2022-11-17T20:51:00.296Z,13.07
2022-11-17T20:53:27.775Z,12.20
2022-11-17T20:56:02.753Z,10.63
2022-11-17T20:58:30.240Z,10.07
2022-11-17T21:00:57.757Z,11.57
2022-11-17T21:03:26.042Z,10.90
2022-11-17T21:05:59.082Z,10.83
2022-11-17T21:08:27.816Z,9.87
2022-11-17T21:10:59.313Z,11.53
2022-11-17T21:13:26.672Z,11.43
2022-11-17T21:16:13.673Z,10.97
2022-11-17T21:18:46.008Z,9.57
2022-11-17T21:21:13.431Z,9.00
2022-11-17T21:23:40.728Z,10.20
2022-11-17T21:26:12.931Z,11.97
2022-11-17T21:28:41.145Z,13.30
2022-11-17T21:31:13.132Z,11.33
2022-11-17T21:33:40.562Z,11.13
2022-11-17T21:36:09.584Z,9.13
2022-11-17T21:38:37.049Z,7.20
2022-11-17T21:41:11.732Z,8.63
2022-11-17T21:43:40.047Z,7.40
2022-11-17T21:46:09.314Z,7.33
2022-11-17T21:48:37.433Z,7.57
2022-11-17T21:51:05.272Z,8.23
2022-11-17T21:53:32.895Z,7.17
2022-11-17T21:56:04.040Z,7.17
2022-11-17T21:58:31.375Z,9.63
2022-11-17T22:00:59.011Z,11.93
2022-11-17T22:03:26.583Z,11.73
2022-11-17T22:05:57.984Z,11.90
2022-11-17T22:08:28.358Z,11.80
2022-11-17T22:10:55.704Z,11.43
2022-11-17T22:13:22.732Z,11.53
2022-11-17T22:15:50.084Z,12.63
2022-11-17T22:18:17.304Z,9.53
2022-11-17T22:20:44.446Z,10.13
2022-11-17T22:23:11.559Z,9.43
2022-11-17T22:25:45.072Z,12.07
2022-11-17T22:28:12.826Z,13.03
2022-11-17T22:30:39.776Z,11.57
2022-11-17T22:33:06.724Z,12.63
2022-11-17T22:35:34.227Z,9.60
2022-11-17T22:38:01.179Z,9.83
2022-11-17T22:40:28.147Z,10.23
2022-11-17T22:42:55.596Z,10.73
2022-11-17T22:45:22.875Z,8.27
2022-11-17T22:47:50.184Z,6.53
2022-11-17T22:50:17.419Z,6.43
2022-11-17T22:52:44.604Z,6.27
2022-11-17T22:55:11.788Z,5.93
2022-11-17T22:57:39.020Z,5.40
2022-11-17T23:00:06.939Z,6.03
2022-11-17T23:02:34.124Z,6.00
2022-11-17T23:05:01.383Z,5.73
2022-11-17T23:07:29.286Z,5.17
2022-11-17T23:09:56.727Z,5.13
2022-11-17T23:12:24.047Z,7.60
2022-11-17T23:14:51.374Z,9.60
2022-11-17T23:17:19.752Z,8.47
2022-11-17T23:19:46.892Z,11.00
2022-11-17T23:22:14.181Z,11.47
2022-11-17T23:24:41.680Z,11.67
2022-11-17T23:27:08.886Z,13.73
2022-11-17T23:29:36.288Z,10.30
2022-11-17T23:32:03.570Z,9.17
2022-11-17T23:34:31.044Z,9.57
2022-11-17T23:37:03.380Z,9.53
2022-11-17T23:39:31.081Z,9.73
2022-11-17T23:41:58.356Z,9.03
2022-11-17T23:44:25.685Z,7.57
2022-11-17T23:46:52.876Z,8.60
2022-11-17T23:49:20.193Z,8.00
2022-11-17T23:51:47.468Z,7.67
2022-11-17T23:54:14.844Z,7.10
2022-11-17T23:56:41.946Z,6.60
2022-11-17T23:59:09.147Z,5.60
